Steelton, Pennsylvania
Current Conditions -  °F | °C
As of 9:56 PM on Saturday 20 Dec 2014 (Local Time) from KCXY Reporting Station
Few Clouds Few Clouds  
Wind Chill: 22°   Ceiling: Unl
Heat Index: 27°   Visibility: 10mi
Dew Point: 21°   Wind: 5mph
Humidity: 78%   Direction: 250°WSW
Pressure: 30.31"   Gusts: NA
Location:  40.2333°N, 76.8237°W
Report Text: KCXY 210256Z AUTO 25004KT 10SM FEW110 M03/M06 A3031 RMK AO2 SLP268 T10281061 53004
Loading
Personal Weather Stations






























Interactive Weather Map New forecast layout! Learn more

10-Day Weather Forecast

Advertisements
Track Severe Weather on mobile